createdAt,value
2023-05-13T00:01:17.383Z,100132.03
2023-05-13T00:04:22.241Z,100141.56
2023-05-13T00:07:27.455Z,100140.59
2023-05-13T00:10:31.276Z,100145.03
2023-05-13T00:13:35.083Z,100136.72
2023-05-13T00:16:39.533Z,100150.72
2023-05-13T00:19:43.397Z,100135.59
2023-05-13T00:22:48.806Z,100143.66
2023-05-13T00:25:52.615Z,100138.47
2023-05-13T00:28:56.518Z,100142.50
2023-05-13T00:32:00.461Z,100144.88
2023-05-13T00:35:04.422Z,100149.66
2023-05-13T00:38:09.931Z,100143.63
2023-05-13T00:41:14.252Z,100149.28
2023-05-13T00:44:18.031Z,100147.09
2023-05-13T00:47:23.276Z,100157.94
2023-05-13T00:50:27.587Z,100160.19
2023-05-13T00:53:34.766Z,100159.47
2023-05-13T00:56:39.575Z,100167.34
2023-05-13T00:59:43.329Z,100171.50
2023-05-13T01:02:54.583Z,100176.47
2023-05-13T01:06:06.161Z,100176.16
2023-05-13T01:09:20.061Z,100175.53
2023-05-13T01:12:31.229Z,100173.06
2023-05-13T01:15:40.576Z,100171.09
2023-05-13T01:18:47.736Z,100179.13
2023-05-13T01:21:55.457Z,100176.81
2023-05-13T01:25:27.952Z,100168.41
2023-05-13T01:28:32.069Z,100165.16
2023-05-13T01:31:40.233Z,100161.44
2023-05-13T01:34:45.837Z,100164.84
2023-05-13T01:37:52.953Z,100169.28
2023-05-13T01:40:58.415Z,100168.59
2023-05-13T01:44:02.339Z,100178.59
2023-05-13T01:47:06.470Z,100181.16
2023-05-13T01:50:11.202Z,100186.28
2023-05-13T01:53:16.410Z,100184.63
2023-05-13T01:56:20.472Z,100192.19
2023-05-13T01:59:25.501Z,100195.88
2023-05-13T02:02:29.190Z,100202.06
2023-05-13T02:05:33.498Z,100198.31
2023-05-13T02:08:43.363Z,100193.72
2023-05-13T02:11:47.697Z,100192.34
2023-05-13T02:14:52.555Z,100190.34
2023-05-13T02:17:56.422Z,100183.84
2023-05-13T02:21:00.256Z,100187.44
2023-05-13T02:24:06.811Z,100189.19
2023-05-13T02:27:13.011Z,100186.94
2023-05-13T02:30:17.043Z,100179.28
2023-05-13T02:33:21.587Z,100179.47
2023-05-13T02:36:25.575Z,100177.72
2023-05-13T02:39:31.038Z,100177.25
2023-05-13T02:42:35.979Z,100173.94
2023-05-13T02:45:41.992Z,100179.25
2023-05-13T02:48:47.600Z,100179.00
2023-05-13T02:51:51.516Z,100178.59
2023-05-13T02:55:02.262Z,100186.94
2023-05-13T02:58:06.142Z,100192.81
2023-05-13T03:01:10.625Z,100198.97
2023-05-13T03:04:14.651Z,100195.28
2023-05-13T03:07:18.599Z,100206.97
2023-05-13T03:10:24.076Z,100210.34
2023-05-13T03:13:27.994Z,100205.88
2023-05-13T03:16:33.172Z,100212.78
2023-05-13T03:19:38.662Z,100220.53
2023-05-13T03:22:42.639Z,100216.31
2023-05-13T03:25:50.028Z,100223.09
2023-05-13T03:28:54.069Z,100225.16
2023-05-13T03:31:58.496Z,100224.38
2023-05-13T03:35:03.063Z,100224.38
2023-05-13T03:38:08.329Z,100221.75
2023-05-13T03:41:17.967Z,100221.84
2023-05-13T03:44:24.076Z,100222.78
2023-05-13T03:47:28.274Z,100222.59
2023-05-13T03:50:37.180Z,100231.38
2023-05-13T03:53:41.376Z,100233.53
2023-05-13T03:56:46.770Z,100230.56
2023-05-13T03:59:50.562Z,100231.13
2023-05-13T04:02:55.985Z,100233.16
2023-05-13T04:05:59.915Z,100219.56
2023-05-13T04:09:04.944Z,100220.25
2023-05-13T04:12:10.158Z,100215.31
2023-05-13T04:15:13.903Z,100218.97
2023-05-13T04:18:17.748Z,100217.09
2023-05-13T04:21:21.489Z,100215.16
2023-05-13T04:24:25.806Z,100224.78
2023-05-13T04:27:31.055Z,100232.34
2023-05-13T04:30:49.613Z,100240.31
2023-05-13T04:33:53.449Z,100253.75
2023-05-13T04:36:57.262Z,100252.97
2023-05-13T04:40:01.964Z,100258.88
2023-05-13T04:43:07.467Z,100257.75
2023-05-13T04:46:18.677Z,100264.53
2023-05-13T04:49:22.649Z,100268.16
2023-05-13T04:52:26.614Z,100276.63
2023-05-13T04:55:30.425Z,100287.25
2023-05-13T04:58:35.853Z,100294.44
2023-05-13T05:01:39.873Z,100281.00
2023-05-13T05:04:43.875Z,100278.53
2023-05-13T05:07:50.819Z,100270.19
2023-05-13T05:10:56.500Z,100289.19
2023-05-13T05:14:01.995Z,100302.66
2023-05-13T05:17:06.811Z,100306.59
2023-05-13T05:20:12.005Z,100312.22
2023-05-13T05:23:16.277Z,100302.31
2023-05-13T05:26:21.039Z,100302.13
2023-05-13T05:29:26.778Z,100307.22
2023-05-13T05:32:31.521Z,100308.13
2023-05-13T05:35:37.442Z,100308.63
2023-05-13T05:38:44.089Z,100307.47
2023-05-13T05:41:48.607Z,100312.03
2023-05-13T05:44:54.294Z,100312.53
2023-05-13T05:47:58.459Z,100303.16
2023-05-13T05:51:03.562Z,100294.88
2023-05-13T05:54:10.549Z,100301.19
2023-05-13T05:57:15.599Z,100290.53
2023-05-13T06:00:22.051Z,100293.31
2023-05-13T06:03:26.261Z,100288.16
2023-05-13T06:06:30.515Z,100305.44
2023-05-13T06:09:34.503Z,100301.03
2023-05-13T06:12:38.589Z,100301.16
2023-05-13T06:15:43.955Z,100300.91
2023-05-13T06:18:48.974Z,100306.78
2023-05-13T06:21:53.013Z,100316.28
2023-05-13T06:24:56.985Z,100317.50
2023-05-13T06:28:02.863Z,100310.56
2023-05-13T06:31:08.603Z,100314.22
2023-05-13T06:34:16.923Z,100311.47
2023-05-13T06:37:21.694Z,100307.38
2023-05-13T06:40:25.836Z,100311.19
2023-05-13T06:43:30.555Z,100312.72
2023-05-13T06:46:37.782Z,100307.09
2023-05-13T06:49:41.672Z,100313.19
2023-05-13T06:52:45.872Z,100307.91
2023-05-13T06:55:49.851Z,100306.63
2023-05-13T06:58:54.095Z,100300.44
2023-05-13T07:01:59.657Z,100311.09
2023-05-13T07:05:03.592Z,100308.97
2023-05-13T07:08:08.880Z,100326.00
2023-05-13T07:11:12.830Z,100311.88
2023-05-13T07:14:17.115Z,100315.59
2023-05-13T07:17:22.790Z,100306.09
2023-05-13T07:20:27.458Z,100307.00
2023-05-13T07:23:31.852Z,100301.75
2023-05-13T07:26:35.786Z,100311.59
2023-05-13T07:29:39.650Z,100304.00
2023-05-13T07:32:45.108Z,100308.53
2023-05-13T07:35:49.157Z,100295.38
2023-05-13T07:38:53.880Z,100295.28
2023-05-13T07:41:57.938Z,100291.50
2023-05-13T07:45:01.891Z,100289.44
2023-05-13T07:48:07.723Z,100285.38
2023-05-13T07:51:11.733Z,100286.16
2023-05-13T07:54:15.734Z,100281.22
2023-05-13T07:57:19.703Z,100286.66
2023-05-13T08:00:23.733Z,100274.09
2023-05-13T08:03:29.284Z,100276.25
2023-05-13T08:06:33.334Z,100264.88
2023-05-13T08:09:37.235Z,100265.25
2023-05-13T08:12:41.596Z,100274.09
2023-05-13T08:15:46.184Z,100280.66
2023-05-13T08:18:55.523Z,100280.66
2023-05-13T08:21:59.523Z,100273.97
2023-05-13T08:25:04.902Z,100277.31
2023-05-13T08:28:08.846Z,100268.16
2023-05-13T08:31:13.931Z,100270.78
2023-05-13T08:34:19.330Z,100268.16
2023-05-13T08:37:23.326Z,100270.91
2023-05-13T08:40:27.184Z,100275.34
2023-05-13T08:43:32.756Z,100277.00
2023-05-13T08:46:39.553Z,100271.25
2023-05-13T08:49:45.330Z,100277.34
2023-05-13T08:52:49.370Z,100273.78
2023-05-13T08:55:53.748Z,100265.88
2023-05-13T08:58:58.066Z,100268.47
2023-05-13T09:02:04.110Z,100268.19
2023-05-13T09:05:11.235Z,100261.53
2023-05-13T09:08:15.599Z,100262.13
2023-05-13T09:11:19.502Z,100261.25
2023-05-13T09:14:23.525Z,100256.38
2023-05-13T09:17:27.571Z,100252.63
2023-05-13T09:20:33.978Z,100250.66
2023-05-13T09:23:39.744Z,100255.53
2023-05-13T09:26:44.065Z,100255.34
2023-05-13T09:29:50.017Z,100259.31
2023-05-13T09:33:11.621Z,100255.53
2023-05-13T09:36:18.764Z,100249.97
2023-05-13T09:39:22.670Z,100252.75
2023-05-13T09:42:26.665Z,100247.63
2023-05-13T09:45:30.493Z,100246.38
2023-05-13T09:48:38.331Z,100244.13
2023-05-13T09:51:45.518Z,100234.13
2023-05-13T09:54:49.526Z,100242.13
2023-05-13T09:57:55.300Z,100241.00
2023-05-13T10:01:00.036Z,100235.56
2023-05-13T10:04:06.491Z,100244.94
2023-05-13T10:07:13.519Z,100239.84
2023-05-13T10:10:17.534Z,100239.66
2023-05-13T10:13:26.043Z,100232.06
2023-05-13T10:16:30.858Z,100228.34
2023-05-13T10:19:35.277Z,100222.84
2023-05-13T10:22:41.774Z,100232.91
2023-05-13T10:25:46.447Z,100225.91
2023-05-13T10:28:50.774Z,100215.88
2023-05-13T10:31:55.722Z,100213.84
2023-05-13T10:35:06.912Z,100208.09
2023-05-13T10:38:18.403Z,100205.69
2023-05-13T10:41:41.031Z,100199.97
2023-05-13T10:44:45.032Z,100208.53
2023-05-13T10:47:52.153Z,100199.53
2023-05-13T10:50:57.205Z,100194.84
2023-05-13T10:54:02.609Z,100192.97
2023-05-13T10:57:06.890Z,100190.84
2023-05-13T11:00:19.365Z,100190.78
2023-05-13T11:03:31.474Z,100190.25
2023-05-13T11:06:36.997Z,100185.97
2023-05-13T11:09:42.358Z,100181.59
2023-05-13T11:13:10.060Z,100179.78
2023-05-13T11:16:15.594Z,100184.03
2023-05-13T11:19:25.047Z,100186.06
2023-05-13T11:22:32.310Z,100178.25
2023-05-13T11:25:38.364Z,100178.88
2023-05-13T11:29:00.048Z,100185.22
2023-05-13T11:32:05.731Z,100186.72
2023-05-13T11:35:10.142Z,100183.63
2023-05-13T11:38:25.427Z,100179.69
2023-05-13T11:41:33.609Z,100176.69
2023-05-13T11:44:38.546Z,100174.69
2023-05-13T11:47:42.408Z,100170.72
2023-05-13T11:50:46.364Z,100172.38
2023-05-13T11:53:50.342Z,100166.69
2023-05-13T11:56:56.161Z,100162.38
2023-05-13T12:00:01.543Z,100159.09
2023-05-13T12:03:12.239Z,100160.47
2023-05-13T12:06:17.238Z,100161.84
2023-05-13T12:09:24.197Z,100166.88
2023-05-13T12:12:31.346Z,100150.88
2023-05-13T12:15:35.413Z,100149.25
2023-05-13T12:18:39.556Z,100139.84
2023-05-13T12:21:43.431Z,100138.69
2023-05-13T12:24:47.308Z,100146.84
2023-05-13T12:27:55.169Z,100144.16
2023-05-13T12:31:00.850Z,100140.50
2023-05-13T12:34:06.667Z,100129.69
2023-05-13T12:37:14.319Z,100123.69
2023-05-13T12:40:18.405Z,100129.47
2023-05-13T12:43:24.527Z,100128.09
2023-05-13T12:46:29.019Z,100127.41
2023-05-13T12:49:32.974Z,100117.38
2023-05-13T12:52:36.954Z,100121.88
2023-05-13T12:55:40.959Z,100110.16
2023-05-13T12:58:46.365Z,100107.38
2023-05-13T13:01:51.492Z,100106.63
2023-05-13T13:04:55.308Z,100104.09
2023-05-13T13:07:59.213Z,100105.63
2023-05-13T13:11:03.080Z,100103.81
2023-05-13T13:14:08.709Z,100098.50
2023-05-13T13:17:12.738Z,100097.06
2023-05-13T13:20:16.620Z,100098.28
2023-05-13T13:23:20.669Z,100097.69
2023-05-13T13:26:24.572Z,100091.56
2023-05-13T13:29:29.990Z,100107.44
2023-05-13T13:32:35.584Z,100107.28
2023-05-13T13:35:39.610Z,100100.47
2023-05-13T13:38:43.452Z,100094.75
2023-05-13T13:41:47.540Z,100087.78
2023-05-13T13:44:52.936Z,100088.97
2023-05-13T13:47:56.833Z,100078.78
2023-05-13T13:51:00.879Z,100084.94
2023-05-13T13:54:08.396Z,100083.31
2023-05-13T13:57:12.355Z,100076.91
2023-05-13T14:00:18.461Z,100088.75
2023-05-13T14:03:22.478Z,100079.22
2023-05-13T14:06:26.599Z,100076.34
2023-05-13T14:09:31.746Z,100073.50
2023-05-13T14:12:36.088Z,100079.16
2023-05-13T14:15:41.592Z,100071.53
2023-05-13T14:18:45.560Z,100076.69
2023-05-13T14:21:49.626Z,100067.00
2023-05-13T14:24:53.960Z,100067.09
2023-05-13T14:27:58.084Z,100066.56
2023-05-13T14:31:03.487Z,100063.69
2023-05-13T14:34:08.154Z,100053.41
2023-05-13T14:37:12.130Z,100058.44
2023-05-13T14:40:16.081Z,100059.56
2023-05-13T14:43:19.998Z,100057.91
2023-05-13T14:46:25.418Z,100053.09
2023-05-13T14:49:29.318Z,100056.97
2023-05-13T14:52:33.186Z,100050.84
2023-05-13T14:55:37.145Z,100054.78
2023-05-13T14:58:41.003Z,100052.56
2023-05-13T15:01:46.591Z,100065.66
2023-05-13T15:04:50.537Z,100065.13
2023-05-13T15:07:54.455Z,100064.09
2023-05-13T15:10:58.379Z,100058.41
2023-05-13T15:14:03.468Z,100060.66
2023-05-13T15:17:12.125Z,100057.63
2023-05-13T15:20:16.149Z,100058.41
2023-05-13T15:23:20.112Z,100053.91
2023-05-13T15:26:23.908Z,100054.44
2023-05-13T15:29:28.888Z,100046.03
2023-05-13T15:32:34.636Z,100054.69
2023-05-13T15:35:38.586Z,100055.13
2023-05-13T15:38:42.456Z,100054.50
2023-05-13T15:41:46.720Z,100048.59
2023-05-13T15:44:50.715Z,100046.66
2023-05-13T15:47:56.196Z,100041.91
2023-05-13T15:51:00.237Z,100048.16
2023-05-13T15:54:04.171Z,100056.38
2023-05-13T15:57:09.338Z,100051.25
2023-05-13T16:00:14.687Z,100045.81
2023-05-13T16:03:20.267Z,100045.84
2023-05-13T16:06:24.324Z,100044.50
2023-05-13T16:09:28.235Z,100053.50
2023-05-13T16:12:32.782Z,100056.19
2023-05-13T16:15:36.669Z,100055.75
2023-05-13T16:18:43.278Z,100057.81
2023-05-13T16:21:47.469Z,100055.16
2023-05-13T16:24:51.436Z,100050.66
2023-05-13T16:27:56.796Z,100059.44
2023-05-13T16:31:00.959Z,100059.69
2023-05-13T16:34:06.418Z,100058.63
2023-05-13T16:37:10.279Z,100055.13
2023-05-13T16:40:15.290Z,100053.53
2023-05-13T16:43:19.168Z,100058.59
2023-05-13T16:46:23.142Z,100048.53
2023-05-13T16:49:28.596Z,100056.09
2023-05-13T16:52:34.353Z,100047.28
2023-05-13T16:55:38.313Z,100063.56
2023-05-13T16:58:42.200Z,100066.13
2023-05-13T17:01:46.174Z,100066.91
2023-05-13T17:04:51.745Z,100076.41
2023-05-13T17:07:55.720Z,100083.50
2023-05-13T17:10:59.591Z,100080.44
2023-05-13T17:14:04.037Z,100071.97
2023-05-13T17:17:07.954Z,100074.25
2023-05-13T17:20:14.540Z,100070.91
2023-05-13T17:23:18.464Z,100074.06
2023-05-13T17:26:22.658Z,100077.66
2023-05-13T17:29:26.678Z,100086.72
2023-05-13T17:32:32.022Z,100087.19
2023-05-13T17:35:37.436Z,100083.31
2023-05-13T17:38:41.322Z,100092.53
2023-05-13T17:41:45.311Z,100093.13
2023-05-13T17:44:49.243Z,100101.38
2023-05-13T17:47:53.303Z,100109.38
2023-05-13T17:50:59.297Z,100106.94
2023-05-13T17:54:03.285Z,100101.09
2023-05-13T17:57:07.479Z,100119.53
2023-05-13T18:00:12.500Z,100120.78
2023-05-13T18:03:16.616Z,100118.94
2023-05-13T18:06:22.136Z,100120.19
2023-05-13T18:09:26.056Z,100118.06
2023-05-13T18:12:31.066Z,100116.69
2023-05-13T18:15:35.160Z,100116.38
2023-05-13T18:18:39.049Z,100116.56
2023-05-13T18:21:45.839Z,100119.91
2023-05-13T18:24:49.792Z,100119.69
2023-05-13T18:27:53.847Z,100114.22
2023-05-13T18:30:57.820Z,100105.56
2023-05-13T18:34:01.826Z,100102.59
2023-05-13T18:37:08.027Z,100107.72
2023-05-13T18:40:12.753Z,100105.94
2023-05-13T18:43:16.697Z,100105.25
2023-05-13T18:46:21.385Z,100100.34
2023-05-13T18:49:28.490Z,100102.28
2023-05-13T18:52:33.932Z,100107.19
2023-05-13T18:55:38.166Z,100118.59
2023-05-13T18:58:42.085Z,100111.22
2023-05-13T19:01:46.086Z,100108.56
2023-05-13T19:04:49.938Z,100101.75
2023-05-13T19:07:55.496Z,100101.72
2023-05-13T19:10:59.378Z,100107.81
2023-05-13T19:14:03.333Z,100107.75
2023-05-13T19:17:07.566Z,100104.47
2023-05-13T19:20:12.730Z,100098.81
2023-05-13T19:23:18.213Z,100097.91
2023-05-13T19:26:22.627Z,100082.88
2023-05-13T19:29:27.126Z,100097.44
2023-05-13T19:32:31.262Z,100087.25
2023-05-13T19:35:35.508Z,100086.16
2023-05-13T19:38:40.982Z,100086.47
2023-05-13T19:41:44.902Z,100093.34
2023-05-13T19:44:48.965Z,100100.44
2023-05-13T19:47:52.983Z,100095.31
2023-05-13T19:50:58.259Z,100100.53
2023-05-13T19:54:03.622Z,100100.81
2023-05-13T19:57:08.033Z,100113.75
2023-05-13T20:00:13.913Z,100117.72
2023-05-13T20:03:18.103Z,100132.53
2023-05-13T20:06:22.156Z,100130.84
2023-05-13T20:09:27.589Z,100131.59
2023-05-13T20:12:31.512Z,100136.34
2023-05-13T20:15:35.530Z,100133.78
2023-05-13T20:18:39.721Z,100133.38
2023-05-13T20:21:43.674Z,100126.22
2023-05-13T20:24:49.568Z,100127.88
2023-05-13T20:27:53.454Z,100134.78
2023-05-13T20:30:57.467Z,100132.47
2023-05-13T20:34:01.372Z,100134.28
2023-05-13T20:37:05.636Z,100135.94
2023-05-13T20:40:11.887Z,100137.72
2023-05-13T20:43:17.055Z,100130.94
2023-05-13T20:46:21.082Z,100132.00
2023-05-13T20:49:24.973Z,100131.91
2023-05-13T20:52:28.875Z,100139.31
2023-05-13T20:55:34.398Z,100141.38
2023-05-13T20:58:38.322Z,100136.78
2023-05-13T21:01:47.660Z,100131.72
2023-05-13T21:04:51.716Z,100141.00
2023-05-13T21:07:55.846Z,100148.38
2023-05-13T21:11:01.243Z,100152.44
2023-05-13T21:14:05.298Z,100151.41
2023-05-13T21:17:09.263Z,100151.03
2023-05-13T21:20:14.342Z,100154.41
2023-05-13T21:23:20.369Z,100143.22
2023-05-13T21:26:26.331Z,100139.09
2023-05-13T21:29:30.929Z,100144.69
2023-05-13T21:32:35.180Z,100150.16
2023-05-13T21:35:39.130Z,100153.63
2023-05-13T21:38:43.041Z,100151.63
2023-05-13T21:41:48.442Z,100162.66
2023-05-13T21:44:52.335Z,100168.56
2023-05-13T21:47:56.449Z,100160.69
2023-05-13T21:51:00.422Z,100160.22
2023-05-13T21:54:05.280Z,100166.69
2023-05-13T21:57:11.495Z,100167.84
2023-05-13T22:00:19.069Z,100172.16
2023-05-13T22:03:22.899Z,100171.81
2023-05-13T22:06:26.898Z,100169.00
2023-05-13T22:09:30.777Z,100174.44
2023-05-13T22:12:36.187Z,100182.81
2023-05-13T22:15:40.056Z,100182.81
2023-05-13T22:18:44.433Z,100174.94
2023-05-13T22:21:48.596Z,100185.63
2023-05-13T22:24:52.547Z,100195.63
2023-05-13T22:27:57.903Z,100190.00
2023-05-13T22:31:01.963Z,100185.59
2023-05-13T22:34:05.993Z,100179.50
2023-05-13T22:37:09.885Z,100176.91
2023-05-13T22:40:14.794Z,100172.25
2023-05-13T22:43:20.240Z,100163.53
2023-05-13T22:46:24.161Z,100169.78
2023-05-13T22:49:28.095Z,100164.69
2023-05-13T22:52:32.092Z,100161.69
2023-05-13T22:55:35.994Z,100169.16
2023-05-13T22:58:41.515Z,100177.69
2023-05-13T23:01:45.569Z,100170.75
2023-05-13T23:04:49.461Z,100182.63
2023-05-13T23:07:53.352Z,100180.19
2023-05-13T23:10:57.709Z,100184.75
2023-05-13T23:14:03.103Z,100185.94
2023-05-13T23:17:07.072Z,100189.69
2023-05-13T23:20:12.519Z,100196.88
2023-05-13T23:23:16.316Z,100194.59
2023-05-13T23:26:20.264Z,100186.97
2023-05-13T23:29:27.895Z,100178.63
2023-05-13T23:32:31.830Z,100167.97
2023-05-13T23:35:36.101Z,100185.06
2023-05-13T23:38:39.965Z,100174.41
2023-05-13T23:41:43.897Z,100181.78
2023-05-13T23:44:49.293Z,100185.69
2023-05-13T23:47:53.250Z,100178.66
2023-05-13T23:50:57.235Z,100181.66
2023-05-13T23:54:01.353Z,100180.97
2023-05-13T23:57:05.388Z,100184.38
